Time;durP1;ratioP1;P1;durP2;ratioP2;P2;SDS_P1;SDS_P2;PMS_P1;PMS_P2;Temp;Humidity;BMP_temperature;BMP_pressure;BME280_temperature;BME280_humidity;BME280_pressure;Samples;Min_cycle;Max_cycle;Signal;HPM_P1;HPM_P2
2022/11/24 00:00:14;;;;;;;22.40;3.93;;;9.30;99.90;;;;;;5062269;28;20483;-61
2022/11/24 00:02:41;;;;;;;36.23;8.90;;;;;;;;;;5046553;28;21043;-61
2022/11/24 00:05:08;;;;;;;33.33;8.17;;;9.30;99.90;;;;;;5046025;28;20475;-61
2022/11/24 00:07:36;;;;;;;39.20;8.33;;;9.30;99.90;;;;;;5042252;28;21406;-61
2022/11/24 00:10:03;;;;;;;31.97;8.03;;;9.20;99.90;;;;;;5042971;28;20483;-61
2022/11/24 00:12:30;;;;;;;27.13;6.40;;;9.30;99.90;;;;;;5044569;28;20476;-61
2022/11/24 00:14:57;;;;;;;24.67;6.47;;;9.30;99.90;;;;;;5039564;28;21006;-61
2022/11/24 00:17:23;;;;;;;18.33;5.97;;;9.30;99.90;;;;;;5044661;28;20467;-62
2022/11/24 00:19:50;;;;;;;47.03;11.80;;;9.30;99.90;;;;;;5046274;28;21410;-62
2022/11/24 00:22:17;;;;;;;19.83;5.40;;;;;;;;;;5038853;28;20861;-62
2022/11/24 00:24:45;;;;;;;25.07;7.43;;;;;;;;;;5045532;28;20488;-62
2022/11/24 00:27:12;;;;;;;30.37;6.07;;;9.40;99.90;;;;;;5038697;28;20479;-61
2022/11/24 00:29:39;;;;;;;33.03;8.57;;;9.50;99.90;;;;;;5048287;28;20462;-61
2022/11/24 00:32:06;;;;;;;20.43;5.83;;;9.50;99.90;;;;;;5039851;28;20911;-61
2022/11/24 00:34:33;;;;;;;26.67;6.37;;;;;;;;;;5035370;28;20672;-61
2022/11/24 00:37:00;;;;;;;40.63;6.33;;;;;;;;;;5035497;28;20480;-60
2022/11/24 00:39:27;;;;;;;25.10;7.13;;;9.50;99.90;;;;;;5039359;28;20562;-61
2022/11/24 00:41:55;;;;;;;33.00;6.90;;;9.50;99.90;;;;;;5033150;28;20589;-61
2022/11/24 00:44:22;;;;;;;34.23;5.27;;;;;;;;;;5038435;28;20513;-62
2022/11/24 00:46:49;;;;;;;28.33;7.90;;;9.30;99.90;;;;;;5036973;28;20483;-61
2022/11/24 00:49:16;;;;;;;22.43;5.97;;;9.30;99.90;;;;;;5036746;28;20882;-61
2022/11/24 00:51:42;;;;;;;40.60;9.53;;;9.30;99.90;;;;;;5041761;28;20947;-61
2022/11/24 00:54:09;;;;;;;17.83;5.00;;;9.30;99.90;;;;;;5040469;28;20451;-61
2022/11/24 00:56:36;;;;;;;24.97;5.63;;;;;;;;;;5036463;28;20483;-61
2022/11/24 00:59:04;;;;;;;32.33;6.03;;;9.20;99.90;;;;;;5028875;28;20854;-61
2022/11/24 01:01:31;;;;;;;30.00;6.50;;;9.20;99.90;;;;;;5040243;28;20480;-61
2022/11/24 01:04:00;;;;;;;39.00;6.97;;;9.20;99.90;;;;;;5042032;28;20519;-60
2022/11/24 01:06:28;;;;;;;40.47;5.90;;;9.20;99.90;;;;;;5029513;28;20469;-61
2022/11/24 01:08:56;;;;;;;29.70;6.47;;;9.10;99.90;;;;;;5019397;28;20490;-60
2022/11/24 01:11:24;;;;;;;38.70;6.50;;;;;;;;;;5044065;28;21269;-61
2022/11/24 01:13:54;;;;;;;21.70;6.53;;;9.10;99.90;;;;;;5039914;28;20510;-60
2022/11/24 01:16:24;;;;;;;21.20;4.60;;;;;;;;;;5035371;28;20504;-61
2022/11/24 01:18:52;;;;;;;27.63;8.13;;;9.00;99.90;;;;;;5039323;28;20477;-60
2022/11/24 01:21:20;;;;;;;20.10;4.93;;;8.90;99.90;;;;;;5036094;28;20492;-61
2022/11/24 01:23:47;;;;;;;36.07;10.60;;;;;;;;;;5036208;28;20504;-60
2022/11/24 01:26:15;;;;;;;41.50;5.47;;;8.80;99.90;;;;;;5035066;28;20492;-61
2022/11/24 01:28:42;;;;;;;29.07;9.67;;;8.60;99.90;;;;;;5036605;28;20480;-61
2022/11/24 01:31:10;;;;;;;24.73;5.30;;;;;;;;;;5033831;28;20487;-61
2022/11/24 01:33:38;;;;;;;28.23;7.10;;;8.60;99.90;;;;;;5042844;28;20537;-61
2022/11/24 01:36:06;;;;;;;30.23;6.90;;;;;;;;;;5034233;28;20500;-61
2022/11/24 01:38:33;;;;;;;23.90;6.50;;;8.70;99.90;;;;;;5035157;28;20487;-61
2022/11/24 01:41:01;;;;;;;24.07;6.07;;;8.70;99.90;;;;;;5021435;28;20484;-61
2022/11/24 01:43:28;;;;;;;22.47;5.90;;;8.70;99.90;;;;;;5045262;28;20484;-61
2022/11/24 01:45:55;;;;;;;38.37;9.20;;;8.80;99.90;;;;;;5040201;28;20480;-61
2022/11/24 01:48:27;;;;;;;32.47;5.83;;;8.80;99.90;;;;;;5033395;28;20483;-61
2022/11/24 01:51:00;;;;;;;35.13;8.57;;;;;;;;;;5036325;28;20476;-61
2022/11/24 01:53:26;;;;;;;25.07;4.80;;;8.80;99.90;;;;;;5035714;28;20978;-61
2022/11/24 01:55:54;;;;;;;25.13;8.07;;;8.90;99.90;;;;;;5035233;28;20484;-60
2022/11/24 01:58:23;;;;;;;28.50;5.50;;;8.80;99.90;;;;;;5035111;28;20511;-61
2022/11/24 02:00:50;;;;;;;28.73;9.20;;;8.70;99.90;;;;;;5040288;28;20876;-61
2022/11/24 02:03:22;;;;;;;25.83;7.07;;;8.80;99.90;;;;;;5038817;28;20515;-61
2022/11/24 02:05:56;;;;;;;29.83;9.10;;;8.80;99.90;;;;;;5037645;28;20495;-61
2022/11/24 02:08:27;;;;;;;32.67;5.83;;;;;;;;;;5035487;28;20484;-61
2022/11/24 02:10:55;;;;;;;39.80;9.50;;;;;;;;;;5038213;28;20748;-61
2022/11/24 02:13:23;;;;;;;27.03;5.53;;;8.90;99.90;;;;;;5036827;28;20769;-61
2022/11/24 02:15:49;;;;;;;32.90;9.33;;;8.90;99.90;;;;;;5033371;28;20486;-61
2022/11/24 02:18:17;;;;;;;35.10;4.90;;;;;;;;;;5034933;28;20505;-61
2022/11/24 02:20:44;;;;;;;44.17;9.57;;;;;;;;;;5037514;28;20487;-61
2022/11/24 02:23:21;;;;;;;37.53;7.80;;;8.80;99.90;;;;;;5041912;28;20480;-61
2022/11/24 02:25:57;;;;;;;41.93;8.63;;;8.80;99.90;;;;;;5026944;28;20944;-61
2022/11/24 02:28:28;;;;;;;26.00;6.60;;;8.70;99.90;;;;;;5031823;28;20489;-61
2022/11/24 02:30:55;;;;;;;27.57;6.47;;;;;;;;;;5039168;28;20492;-61
2022/11/24 02:33:24;;;;;;;44.70;8.07;;;;;;;;;;5018285;28;20491;-61
2022/11/24 02:35:51;;;;;;;49.73;10.77;;;;;;;;;;5045229;28;20642;-61
2022/11/24 02:38:18;;;;;;;41.57;7.33;;;;;;;;;;5029571;28;20487;-62
2022/11/24 02:40:48;;;;;;;37.60;9.90;;;8.70;99.90;;;;;;5042739;28;21003;-61
2022/11/24 02:43:17;;;;;;;24.07;6.13;;;;;;;;;;5035741;28;20487;-61
2022/11/24 02:45:45;;;;;;;50.73;9.50;;;8.60;99.90;;;;;;5036906;28;20484;-61
2022/11/24 02:48:13;;;;;;;27.90;5.90;;;8.70;99.90;;;;;;5034502;28;20468;-61
2022/11/24 02:50:41;;;;;;;42.40;10.10;;;;;;;;;;5035750;28;20480;-62
2022/11/24 02:53:08;;;;;;;27.93;7.30;;;;;;;;;;5037908;28;20504;-61
2022/11/24 02:55:35;;;;;;;26.70;7.43;;;10.90;99.90;;;;;;5033402;28;20489;-61
2022/11/24 02:58:01;;;;;;;38.30;8.30;;;8.80;99.90;;;;;;5036299;28;21176;-61
2022/11/24 03:00:28;;;;;;;20.83;6.93;;;8.70;99.90;;;;;;5039081;28;20480;-61
2022/11/24 03:02:56;;;;;;;37.50;7.17;;;8.80;99.90;;;;;;5039744;28;21044;-61
2022/11/24 03:05:23;;;;;;;36.47;7.30;;;8.70;99.90;;;;;;5036430;28;20476;-62
2022/11/24 03:07:50;;;;;;;34.73;10.30;;;8.80;99.90;;;;;;5028910;28;20491;-61
2022/11/24 03:10:17;;;;;;;42.53;7.40;;;8.80;99.90;;;;;;5033862;28;20518;-61
2022/11/24 03:12:44;;;;;;;32.37;8.10;;;8.70;99.90;;;;;;5032607;28;20484;-62
2022/11/24 03:15:11;;;;;;;34.37;6.43;;;;;;;;;;5036124;28;20483;-61
2022/11/24 03:17:38;;;;;;;45.60;7.80;;;8.80;99.90;;;;;;5033242;28;20476;-61
2022/11/24 03:20:07;;;;;;;24.43;7.10;;;;;;;;;;5035985;28;21223;-61
2022/11/24 03:22:35;;;;;;;29.80;5.47;;;;;;;;;;5034740;28;20484;-61
2022/11/24 03:25:01;;;;;;;35.37;7.13;;;9.00;99.90;;;;;;5036201;28;20472;-61
2022/11/24 03:27:29;;;;;;;36.33;7.23;;;8.90;99.90;;;;;;5036056;28;20516;-62
2022/11/24 03:29:57;;;;;;;29.53;7.20;;;;;;;;;;5037485;28;21110;-61
2022/11/24 03:32:23;;;;;;;34.97;5.07;;;9.00;99.90;;;;;;5036982;28;20484;-61
2022/11/24 03:34:51;;;;;;;25.23;8.97;;;9.00;99.90;;;;;;5034997;28;20511;-61
2022/11/24 03:37:19;;;;;;;34.93;8.30;;;9.10;99.90;;;;;;5033361;28;20482;-61
2022/11/24 03:39:46;;;;;;;39.90;8.20;;;9.20;99.90;;;;;;5034238;28;20580;-60
2022/11/24 03:42:13;;;;;;;26.93;5.50;;;;;;;;;;5035528;28;20844;-62
2022/11/24 03:44:40;;;;;;;47.00;10.70;;;;;;;;;;5034763;28;20484;-62
2022/11/24 03:47:07;;;;;;;35.07;7.43;;;;;;;;;;5034885;28;20487;-61
2022/11/24 03:49:34;;;;;;;28.87;5.30;;;9.10;99.90;;;;;;5038981;28;20487;-61
2022/11/24 03:52:00;;;;;;;26.30;6.50;;;9.00;99.90;;;;;;5038012;28;20480;-61
2022/11/24 03:54:29;;;;;;;39.47;6.20;;;9.00;99.90;;;;;;5038249;28;20476;-61
2022/11/24 03:56:55;;;;;;;34.27;6.23;;;9.10;99.90;;;;;;5036846;28;20479;-61
2022/11/24 03:59:22;;;;;;;33.93;6.20;;;9.10;99.90;;;;;;5038626;28;20883;-61
2022/11/24 04:01:49;;;;;;;26.27;6.00;;;;;;;;;;5038730;28;21088;-61
2022/11/24 04:04:16;;;;;;;24.63;6.80;;;;;;;;;;5037936;28;20560;-61
2022/11/24 04:06:43;;;;;;;32.30;9.37;;;9.10;99.90;;;;;;5041697;28;20483;-61
2022/11/24 04:09:10;;;;;;;24.03;4.33;;;9.10;99.90;;;;;;5037808;28;21210;-61
2022/11/24 04:14:23;;;;;;;29.70;5.20;;;;;;;;;;5034325;28;20490;-61
2022/11/24 04:16:50;;;;;;;38.33;9.00;;;9.10;99.90;;;;;;5032997;28;20495;-61
2022/11/24 04:19:17;;;;;;;17.83;6.10;;;9.10;99.90;;;;;;5039775;28;20491;-61
2022/11/24 04:21:43;;;;;;;44.50;8.70;;;9.00;99.90;;;;;;5039952;28;20478;-62
2022/11/24 04:24:11;;;;;;;29.03;5.10;;;;;;;;;;5042137;28;21046;-61
2022/11/24 04:26:39;;;;;;;19.83;5.87;;;;;;;;;;5038010;28;20949;-61
2022/11/24 04:29:06;;;;;;;36.73;6.90;;;9.10;99.90;;;;;;5019537;28;20490;-61
2022/11/24 04:31:32;;;;;;;40.17;8.77;;;9.00;99.90;;;;;;5041265;28;21230;-61
2022/11/24 04:33:59;;;;;;;40.30;7.27;;;9.00;99.90;;;;;;5040315;28;20479;-61
2022/11/24 04:36:26;;;;;;;42.90;8.17;;;8.90;99.90;;;;;;5033312;28;20490;-61
2022/11/24 04:38:53;;;;;;;25.43;7.60;;;;;;;;;;5039927;28;21043;-62
2022/11/24 04:41:20;;;;;;;27.67;5.57;;;9.00;99.90;;;;;;5041422;28;20516;-61
2022/11/24 04:43:50;;;;;;;25.13;5.80;;;9.00;99.90;;;;;;5040764;28;20905;-61
2022/11/24 04:46:17;;;;;;;25.17;4.13;;;8.90;99.90;;;;;;5034202;28;20542;-62
2022/11/24 04:48:44;;;;;;;44.57;9.90;;;8.90;99.90;;;;;;5038457;28;20992;-62
2022/11/24 04:51:13;;;;;;;30.90;6.17;;;8.90;99.90;;;;;;5040908;28;20480;-61
2022/11/24 04:53:40;;;;;;;40.90;9.57;;;8.90;99.90;;;;;;5015107;28;20471;-62
2022/11/24 04:56:07;;;;;;;29.50;6.03;;;;;;;;;;5039249;28;20475;-62
2022/11/24 04:58:34;;;;;;;46.47;10.80;;;8.80;99.90;;;;;;5038381;28;20481;-62
2022/11/24 05:01:05;;;;;;;33.63;6.23;;;9.00;99.90;;;;;;5041721;28;20476;-61
2022/11/24 05:03:32;;;;;;;36.43;9.13;;;8.80;99.90;;;;;;5037695;28;20484;-62
2022/11/24 05:05:59;;;;;;;43.67;7.70;;;;;;;;;;5036215;28;20488;-61
2022/11/24 05:08:27;;;;;;;29.50;7.50;;;;;;;;;;5033713;28;20976;-61
2022/11/24 05:10:54;;;;;;;31.60;7.33;;;9.10;99.90;;;;;;5042968;28;20475;-61
2022/11/24 05:13:21;;;;;;;24.20;5.70;;;9.10;99.90;;;;;;5030765;28;20477;-62
2022/11/24 05:15:47;;;;;;;31.23;8.97;;;9.20;99.90;;;;;;5048321;28;20480;-61
2022/11/24 05:18:15;;;;;;;18.80;5.63;;;9.20;99.90;;;;;;5041247;28;20480;-61
2022/11/24 05:20:44;;;;;;;48.27;11.23;;;;;;;;;;5040798;28;20476;-61
2022/11/24 05:23:11;;;;;;;29.07;8.20;;;9.10;99.90;;;;;;5038390;28;20543;-62
2022/11/24 05:25:38;;;;;;;45.00;7.90;;;9.30;99.90;;;;;;5035542;28;20794;-62
2022/11/24 05:28:08;;;;;;;32.10;8.40;;;9.40;99.90;;;;;;5037690;28;20488;-62
2022/11/24 05:30:37;;;;;;;24.87;6.30;;;9.30;99.90;;;;;;5038084;28;20571;-62
2022/11/24 05:33:07;;;;;;;40.83;7.50;;;9.30;99.90;;;;;;5037311;28;20567;-61
2022/11/24 05:35:36;;;;;;;41.00;10.57;;;;;;;;;;5036750;28;20488;-61
2022/11/24 05:38:04;;;;;;;43.57;8.20;;;;;;;;;;5036860;28;20824;-61
2022/11/24 05:40:31;;;;;;;37.43;9.10;;;9.50;99.90;;;;;;5036420;28;20483;-61
2022/11/24 05:42:58;;;;;;;44.83;10.30;;;;;;;;;;5036342;28;20484;-60
2022/11/24 05:45:25;;;;;;;47.80;10.50;;;;;;;;;;5039165;28;20495;-61
2022/11/24 05:47:52;;;;;;;29.20;7.17;;;9.50;99.90;;;;;;5039743;28;20476;-62
2022/11/24 05:50:20;;;;;;;35.27;7.83;;;9.30;99.90;;;;;;5033581;28;20480;-62
2022/11/24 05:52:49;;;;;;;43.37;10.60;;;;;;;;;;5045319;28;20495;-62
2022/11/24 05:55:18;;;;;;;34.00;6.40;;;;;;;;;;5029196;28;20484;-62
2022/11/24 05:57:45;;;;;;;51.67;12.93;;;9.40;99.90;;;;;;5040680;28;20901;-62
2022/11/24 06:00:12;;;;;;;30.63;7.80;;;9.30;99.90;;;;;;5031986;28;20480;-63
2022/11/24 06:02:39;;;;;;;26.33;6.60;;;;;;;;;;5040535;28;20487;-62
2022/11/24 06:05:07;;;;;;;34.57;6.53;;;;;;;;;;5036200;28;20483;-62
2022/11/24 06:07:33;;;;;;;31.17;8.00;;;9.30;99.90;;;;;;5042985;28;21056;-62
2022/11/24 06:10:01;;;;;;;27.33;6.63;;;9.30;99.90;;;;;;5033923;28;21440;-62
2022/11/24 06:12:28;;;;;;;30.17;6.50;;;9.40;99.90;;;;;;5047375;28;20484;-62
2022/11/24 06:14:55;;;;;;;34.13;7.90;;;9.40;99.90;;;;;;5039260;28;20880;-61
2022/11/24 06:17:22;;;;;;;18.83;5.30;;;;;;;;;;5037777;28;20480;-62
2022/11/24 06:19:50;;;;;;;30.63;8.60;;;;;;;;;;5039393;28;20499;-62
2022/11/24 06:22:18;;;;;;;20.17;5.60;;;;;;;;;;5039252;28;20972;-62
2022/11/24 06:24:45;;;;;;;37.40;10.43;;;;;;;;;;5036259;28;20520;-62
2022/11/24 06:27:14;;;;;;;25.17;7.83;;;;;;;;;;5034801;28;20563;-62
2022/11/24 06:29:41;;;;;;;27.13;6.03;;;9.20;99.90;;;;;;5039223;28;20855;-61
2022/11/24 06:32:07;;;;;;;18.00;4.67;;;9.20;99.90;;;;;;5044668;28;20490;-62
2022/11/24 06:34:35;;;;;;;30.23;8.10;;;;;;;;;;5037056;28;20483;-62
2022/11/24 06:37:01;;;;;;;47.53;7.47;;;9.20;99.90;;;;;;5035843;28;20605;-62
2022/11/24 06:39:28;;;;;;;24.73;6.70;;;9.20;99.90;;;;;;5034602;28;20472;-62
2022/11/24 06:41:55;;;;;;;22.03;5.33;;;9.20;99.90;;;;;;5024754;28;20486;-62
2022/11/24 06:44:23;;;;;;;36.57;4.73;;;9.20;99.90;;;;;;5039214;28;20979;-62
2022/11/24 06:46:50;;;;;;;22.90;7.90;;;9.20;99.90;;;;;;5037624;28;20484;-62
2022/11/24 06:49:16;;;;;;;30.30;5.20;;;9.30;99.90;;;;;;5036907;28;20495;-62
2022/11/24 06:51:43;;;;;;;40.80;9.47;;;9.30;99.90;;;;;;5039813;28;20491;-62
2022/11/24 06:54:11;;;;;;;32.33;6.23;;;;;;;;;;5025041;28;20476;-62
2022/11/24 06:56:38;;;;;;;49.27;11.17;;;;;;;;;;5046385;28;20480;-62
2022/11/24 06:59:05;;;;;;;39.03;6.73;;;;;;;;;;5038762;28;20484;-63
2022/11/24 07:01:33;;;;;;;31.93;7.40;;;9.00;99.90;;;;;;5034093;28;20890;-62
2022/11/24 07:04:00;;;;;;;35.40;7.43;;;;;;;;;;5032141;28;20897;-62
2022/11/24 07:06:28;;;;;;;30.53;6.10;;;9.10;99.90;;;;;;5029166;28;20468;-62
2022/11/24 07:08:54;;;;;;;24.00;7.20;;;9.20;99.90;;;;;;5029716;28;20654;-62
2022/11/24 07:11:23;;;;;;;23.30;5.67;;;9.20;99.90;;;;;;5034323;28;20487;-62
2022/11/24 07:13:50;;;;;;;32.60;7.90;;;9.20;99.90;;;;;;5044135;28;20480;-62
2022/11/24 07:16:18;;;;;;;31.40;5.13;;;;;;;;;;5038073;28;20520;-63
2022/11/24 07:18:47;;;;;;;26.40;7.87;;;;;;;;;;5037203;28;20471;-62
2022/11/24 07:21:15;;;;;;;28.70;6.87;;;;;;;;;;5036661;28;20487;-62
2022/11/24 07:23:42;;;;;;;35.20;9.07;;;;;;;;;;5031345;28;20984;-62
2022/11/24 07:26:10;;;;;;;34.50;6.97;;;;;;;;;;5035809;28;20503;-61
2022/11/24 07:28:37;;;;;;;28.40;5.87;;;;;;;;;;5037052;28;20522;-62
2022/11/24 07:31:08;;;;;;;35.83;6.50;;;;;;;;;;5026215;28;20479;-61
2022/11/24 07:33:35;;;;;;;25.10;5.93;;;;;;;;;;5026015;28;20993;-62
2022/11/24 07:36:04;;;;;;;21.83;5.23;;;9.60;99.90;;;;;;5034603;28;20479;-62
2022/11/24 07:38:32;;;;;;;32.87;6.17;;;9.60;99.90;;;;;;5036062;28;20487;-62
2022/11/24 07:41:01;;;;;;;20.73;6.70;;;9.60;99.90;;;;;;5035832;28;21245;-62
2022/11/24 07:43:30;;;;;;;16.67;4.63;;;9.60;99.90;;;;;;5034944;28;21455;-62
2022/11/24 07:45:57;;;;;;;22.77;8.40;;;9.70;99.90;;;;;;5034094;28;20488;-61
2022/11/24 07:48:23;;;;;;;17.53;4.10;;;9.60;99.90;;;;;;5035961;28;20858;-62
2022/11/24 07:50:50;;;;;;;33.87;10.03;;;9.70;99.90;;;;;;5035186;28;20485;-62
2022/11/24 07:53:18;;;;;;;21.20;4.97;;;9.80;99.90;;;;;;5036181;28;20489;-61
2022/11/24 07:55:53;;;;;;;35.77;8.37;;;9.70;99.90;;;;;;5046829;28;20622;-62
2022/11/24 07:58:20;;;;;;;25.67;5.30;;;9.70;99.90;;;;;;5033888;28;20511;-62
2022/11/24 08:00:47;;;;;;;24.57;6.07;;;;;;;;;;5036504;28;20932;-63
2022/11/24 08:03:14;;;;;;;29.90;4.60;;;;;;;;;;5052171;28;20472;-62
2022/11/24 08:05:41;;;;;;;28.00;8.73;;;9.70;99.90;;;;;;5037644;28;20499;-62
2022/11/24 08:08:07;;;;;;;30.00;6.00;;;9.80;99.90;;;;;;5041062;28;20480;-61
2022/11/24 08:10:35;;;;;;;37.93;6.10;;;9.80;99.90;;;;;;5041388;28;20475;-62
2022/11/24 08:13:02;;;;;;;22.30;4.97;;;9.80;99.90;;;;;;5037601;28;20484;-62
2022/11/24 08:15:29;;;;;;;27.43;10.23;;;;;;;;;;5032756;28;20475;-62
2022/11/24 08:17:56;;;;;;;26.57;6.13;;;10.00;99.90;;;;;;5031720;28;20876;-61
2022/11/24 08:20:23;;;;;;;27.80;5.47;;;10.00;99.90;;;;;;5041315;28;21216;-61
2022/11/24 08:22:49;;;;;;;34.43;9.80;;;10.00;99.90;;;;;;5026284;28;20510;-63
2022/11/24 08:25:17;;;;;;;27.17;4.80;;;;;;;;;;5040038;28;20480;-61
2022/11/24 08:27:45;;;;;;;27.53;9.60;;;10.00;99.90;;;;;;5036180;28;20995;-62
2022/11/24 08:30:13;;;;;;;24.73;5.70;;;11.50;99.90;;;;;;5039185;28;20472;-61
2022/11/24 08:32:40;;;;;;;33.20;8.47;;;;;;;;;;5034247;28;20487;-63
2022/11/24 08:35:07;;;;;;;20.33;5.10;;;10.10;99.90;;;;;;5035635;28;20565;-62
2022/11/24 08:37:34;;;;;;;17.43;4.90;;;10.10;99.90;;;;;;5041457;28;20479;-61
2022/11/24 08:40:01;;;;;;;27.10;5.03;;;10.10;99.90;;;;;;5045891;28;20481;-62
2022/11/24 08:42:28;;;;;;;30.67;7.40;;;10.20;99.90;;;;;;5039438;28;20482;-61
2022/11/24 08:44:56;;;;;;;37.13;11.70;;;10.30;99.90;;;;;;5040074;28;20500;-62
2022/11/24 08:47:23;;;;;;;22.53;5.30;;;10.30;99.90;;;;;;5036949;28;20476;-61
2022/11/24 08:49:50;;;;;;;37.47;9.27;;;;;;;;;;5039667;28;20484;-61
2022/11/24 08:52:17;;;;;;;23.67;5.60;;;10.20;99.90;;;;;;5040466;28;20483;-61
2022/11/24 08:54:44;;;;;;;39.73;9.97;;;10.10;99.90;;;;;;5034359;28;20993;-62
2022/11/24 08:57:11;;;;;;;24.40;5.23;;;10.00;99.90;;;;;;5048383;28;20579;-62
2022/11/24 08:59:38;;;;;;;30.43;9.20;;;10.10;99.90;;;;;;5027639;28;20480;-61
2022/11/24 09:02:06;;;;;;;25.83;6.77;;;10.10;99.90;;;;;;5052624;28;21398;-61
2022/11/24 09:04:33;;;;;;;28.43;7.23;;;10.20;99.90;;;;;;5040706;28;20476;-61
2022/11/24 09:07:00;;;;;;;31.87;6.33;;;10.20;99.90;;;;;;5038151;28;20511;-61
2022/11/24 09:09:26;;;;;;;32.63;6.80;;;10.30;99.90;;;;;;5036014;28;20482;-61
2022/11/24 09:11:53;;;;;;;29.30;9.87;;;10.40;99.90;;;;;;5041654;28;20864;-62
2022/11/24 09:14:20;;;;;;;26.50;5.57;;;;;;;;;;5036129;28;20480;-62
2022/11/24 09:16:47;;;;;;;40.80;7.43;;;;;;;;;;5032712;28;20487;-61
2022/11/24 09:19:15;;;;;;;31.03;6.10;;;;;;;;;;5048150;28;20946;-61
2022/11/24 09:21:43;;;;;;;21.87;5.50;;;;;;;;;;5023934;28;20578;-61
2022/11/24 09:24:10;;;;;;;25.70;6.37;;;10.60;99.90;;;;;;5052844;28;20659;-62
2022/11/24 09:26:38;;;;;;;20.53;6.50;;;10.70;99.90;;;;;;5035251;28;20479;-61
2022/11/24 09:29:06;;;;;;;27.80;7.93;;;10.90;99.90;;;;;;5038021;28;20484;-62
2022/11/24 09:31:35;;;;;;;31.43;6.30;;;10.90;99.90;;;;;;5037083;28;20488;-62
2022/11/24 09:34:03;;;;;;;30.60;6.87;;;11.00;99.90;;;;;;5033674;28;21190;-61
2022/11/24 09:36:31;;;;;;;26.47;7.73;;;11.00;99.90;;;;;;5041126;28;20476;-61
2022/11/24 09:38:58;;;;;;;36.53;8.13;;;11.00;99.90;;;;;;5027878;28;20608;-62
2022/11/24 09:41:47;;;;;;;28.63;5.73;;;11.00;99.90;;;;;;5043408;28;20908;-61
2022/11/24 09:44:23;;;;;;;17.03;5.17;;;;;;;;;;5024441;28;20934;-61
2022/11/24 09:46:57;;;;;;;36.60;9.30;;;11.00;99.90;;;;;;5031192;28;20482;-61
2022/11/24 09:49:30;;;;;;;31.67;5.53;;;11.00;99.90;;;;;;5032409;28;20488;-62
2022/11/24 09:52:00;;;;;;;23.80;6.20;;;12.30;99.90;;;;;;5034108;28;20480;-61
2022/11/24 09:54:29;;;;;;;26.40;5.77;;;10.80;99.90;;;;;;5040734;28;20491;-61
2022/11/24 09:56:59;;;;;;;25.37;6.80;;;10.80;99.90;;;;;;5036027;28;20488;-61
2022/11/24 09:59:27;;;;;;;27.70;6.60;;;;;;;;;;5039972;28;20484;-61
2022/11/24 10:01:55;;;;;;;35.33;6.90;;;;;;;;;;5034161;28;20851;-61
2022/11/24 10:04:26;;;;;;;20.30;4.90;;;10.80;99.90;;;;;;5038522;28;20601;-61
2022/11/24 10:07:03;;;;;;;38.30;8.60;;;10.80;99.90;;;;;;5033705;28;20488;-61
2022/11/24 10:09:47;;;;;;;23.33;6.80;;;10.80;99.90;;;;;;5036517;28;20476;-62
2022/11/24 10:12:27;;;;;;;30.83;6.07;;;10.90;99.90;;;;;;5021929;28;20472;-62
2022/11/24 10:15:20;;;;;;;32.67;8.33;;;10.80;99.90;;;;;;5023375;28;20483;-62
2022/11/24 10:18:14;;;;;;;35.43;9.00;;;10.70;99.90;;;;;;5030636;28;20496;-61
2022/11/24 10:20:52;;;;;;;48.90;8.63;;;10.90;99.90;;;;;;5021626;28;20943;-62
2022/11/24 10:23:26;;;;;;;24.10;5.37;;;;;;;;;;5040615;28;20483;-62
2022/11/24 10:25:57;;;;;;;32.33;7.87;;;11.00;99.90;;;;;;5021591;28;20481;-61
2022/11/24 10:28:31;;;;;;;22.80;5.83;;;11.10;99.90;;;;;;5040948;28;20514;-62
2022/11/24 10:31:13;;;;;;;18.90;5.90;;;11.20;99.90;;;;;;5037008;28;20490;-62
2022/11/24 10:33:40;;;;;;;36.00;8.47;;;11.30;99.90;;;;;;5043423;28;21018;-62
2022/11/24 10:36:09;;;;;;;18.43;5.40;;;;;;;;;;5034440;28;21154;-62
2022/11/24 10:38:42;;;;;;;27.30;5.73;;;;;;;;;;5038374;28;20486;-62
2022/11/24 10:41:16;;;;;;;31.20;6.57;;;11.60;99.90;;;;;;5035263;28;20493;-62
2022/11/24 10:43:43;;;;;;;36.73;10.80;;;;;;;;;;5036453;28;20477;-62
2022/11/24 10:46:12;;;;;;;19.43;4.27;;;;;;;;;;5034998;28;20493;-62
2022/11/24 10:48:43;;;;;;;37.10;9.33;;;11.70;99.90;;;;;;5038012;28;21160;-62
2022/11/24 10:51:36;;;;;;;19.30;4.23;;;11.80;99.90;;;;;;5038916;28;20476;-62
2022/11/24 10:54:12;;;;;;;28.63;5.77;;;12.10;99.90;;;;;;5023633;28;20515;-62
2022/11/24 10:56:40;;;;;;;39.23;9.70;;;12.10;99.90;;;;;;5047434;28;20480;-61
2022/11/24 10:59:29;;;;;;;27.00;5.50;;;;;;;;;;5035041;28;20485;-62
2022/11/24 11:01:56;;;;;;;25.63;7.77;;;12.30;99.90;;;;;;5026858;28;20488;-62
2022/11/24 11:04:27;;;;;;;25.20;5.33;;;12.40;99.90;;;;;;5038311;28;21255;-63
2022/11/24 11:07:08;;;;;;;31.70;7.40;;;12.40;99.90;;;;;;5021498;28;20477;-62
2022/11/24 11:09:39;;;;;;;35.60;6.20;;;;;;;;;;5025826;28;20473;-62
2022/11/24 11:12:10;;;;;;;28.17;6.60;;;12.20;99.90;;;;;;5029518;28;20480;-62
2022/11/24 11:14:38;;;;;;;32.50;7.10;;;;;;;;;;5038455;28;21282;-62
2022/11/24 11:17:31;;;;;;;35.03;6.77;;;12.30;99.90;;;;;;5035986;28;20492;-63
2022/11/24 11:20:04;;;;;;;34.20;8.13;;;12.20;99.90;;;;;;5027264;28;20477;-62
2022/11/24 11:22:32;;;;;;;23.83;6.30;;;;;;;;;;5024993;28;20571;-62
2022/11/24 11:25:19;;;;;;;25.53;5.83;;;12.10;99.90;;;;;;5034358;28;20589;-61
2022/11/24 11:27:47;;;;;;;29.57;10.43;;;;;;;;;;5038226;28;20484;-62
2022/11/24 11:30:19;;;;;;;27.53;5.10;;;;;;;;;;5034128;28;20495;-63
2022/11/24 11:32:55;;;;;;;22.03;6.70;;;12.60;99.90;;;;;;5038677;28;20572;-63
2022/11/24 11:35:25;;;;;;;25.20;4.97;;;12.70;99.90;;;;;;5035502;28;20846;-62
2022/11/24 11:37:54;;;;;;;39.87;9.53;;;12.60;99.90;;;;;;5034838;28;20490;-63
2022/11/24 11:40:26;;;;;;;31.20;6.93;;;12.50;99.90;;;;;;5035901;28;20568;-62
2022/11/24 11:42:55;;;;;;;30.67;8.47;;;;;;;;;;5034572;28;20475;-63
2022/11/24 11:45:26;;;;;;;22.00;6.13;;;12.70;99.90;;;;;;5036263;28;20498;-62
2022/11/24 11:47:57;;;;;;;52.37;9.33;;;12.70;99.90;;;;;;5039954;28;21923;-63
2022/11/24 11:50:27;;;;;;;21.23;6.50;;;12.70;99.90;;;;;;5033626;28;20998;-63
2022/11/24 11:53:04;;;;;;;30.40;7.57;;;12.40;99.90;;;;;;5028567;28;20496;-63
2022/11/24 11:55:46;;;;;;;31.80;9.10;;;12.50;99.90;;;;;;5017722;28;20495;-63
2022/11/24 11:58:55;;;;;;;26.17;5.13;;;12.40;99.90;;;;;;5018583;28;20483;-63
2022/11/24 12:01:37;;;;;;;30.33;6.83;;;12.20;99.90;;;;;;5028353;28;20566;-62
2022/11/24 12:04:15;;;;;;;18.73;5.57;;;12.10;99.90;;;;;;5031802;28;20476;-63
2022/11/24 12:06:58;;;;;;;22.37;6.67;;;12.00;99.90;;;;;;5025582;28;20475;-63
2022/11/24 12:09:38;;;;;;;26.13;5.87;;;12.10;99.90;;;;;;5033554;28;20476;-62
2022/11/24 12:12:19;;;;;;;22.20;4.70;;;;;;;;;;5025068;28;21003;-62
2022/11/24 12:14:59;;;;;;;27.30;9.53;;;12.50;99.90;;;;;;5026426;28;20575;-63
2022/11/24 12:17:33;;;;;;;25.97;5.27;;;12.60;99.70;;;;;;5036417;28;21034;-62
2022/11/24 12:20:07;;;;;;;23.53;6.40;;;;;;;;;;5037671;28;20468;-62
2022/11/24 12:22:48;;;;;;;34.03;6.50;;;12.90;99.90;;;;;;5037186;28;20519;-62
2022/11/24 12:25:22;;;;;;;23.43;7.33;;;;;;;;;;5018286;28;20471;-62
2022/11/24 12:27:55;;;;;;;31.77;8.70;;;;;;;;;;5034057;28;20542;-61
2022/11/24 12:30:23;;;;;;;29.20;6.60;;;;;;;;;;5047314;28;20469;-62
2022/11/24 12:33:18;;;;;;;36.60;10.80;;;13.10;99.50;;;;;;5035408;28;20499;-62
2022/11/24 12:35:47;;;;;;;30.33;7.83;;;;;;;;;;5018148;28;20488;-62
2022/11/24 12:38:30;;;;;;;34.60;5.20;;;13.10;99.10;;;;;;5031207;28;20491;-61
2022/11/24 12:41:15;;;;;;;17.70;5.70;;;12.90;99.80;;;;;;5048024;28;20483;-62
2022/11/24 12:43:49;;;;;;;26.73;9.90;;;13.00;99.70;;;;;;5022787;28;20537;-62
2022/11/24 12:46:21;;;;;;;16.03;5.20;;;12.90;99.50;;;;;;5028446;28;20483;-62
2022/11/24 12:48:57;;;;;;;16.23;5.50;;;12.90;99.90;;;;;;5039652;28;21014;-61
2022/11/24 12:51:29;;;;;;;13.17;5.30;;;12.70;99.40;;;;;;5043591;28;20586;-61
2022/11/24 12:53:58;;;;;;;18.17;7.47;;;12.70;99.40;;;;;;5037001;28;20476;-61
2022/11/24 12:56:35;;;;;;;24.30;7.23;;;12.90;99.90;;;;;;5025298;28;20483;-61
2022/11/24 12:59:27;;;;;;;39.10;6.90;;;13.00;99.60;;;;;;5053969;28;20486;-61
2022/11/24 13:02:04;;;;;;;27.17;6.67;;;12.90;99.80;;;;;;5028430;28;20485;-62
2022/11/24 13:04:39;;;;;;;34.47;6.20;;;12.90;99.60;;;;;;5034580;28;20483;-63
2022/11/24 13:07:11;;;;;;;19.80;5.90;;;12.90;99.30;;;;;;5042770;28;20594;-63
2022/11/24 13:09:38;;;;;;;15.70;7.87;;;12.90;99.40;;;;;;5035065;28;20603;-63
2022/11/24 13:12:12;;;;;;;18.60;6.23;;;12.80;99.30;;;;;;5034743;28;20483;-62
2022/11/24 13:14:44;;;;;;;33.50;8.60;;;12.70;99.50;;;;;;5033021;28;20488;-63
2022/11/24 13:17:27;;;;;;;19.17;4.60;;;12.60;99.80;;;;;;5032041;28;20492;-63
2022/11/24 13:20:15;;;;;;;18.80;8.27;;;12.40;99.40;;;;;;5024606;28;21002;-62
2022/11/24 13:22:48;;;;;;;34.03;9.40;;;12.40;99.80;;;;;;5032543;28;21008;-63
2022/11/24 13:25:19;;;;;;;20.13;5.93;;;12.40;99.60;;;;;;5051595;28;20472;-62
2022/11/24 13:27:49;;;;;;;23.93;7.80;;;12.50;99.90;;;;;;5031933;28;20484;-62